createdAt,value
2022-08-20T00:00:42.130Z,49.71
2022-08-20T00:01:44.337Z,49.68
2022-08-20T00:02:51.667Z,49.94
2022-08-20T00:03:53.824Z,49.72
2022-08-20T00:04:57.344Z,49.82
2022-08-20T00:06:04.139Z,49.91
2022-08-20T00:07:06.520Z,50.11
2022-08-20T00:08:10.004Z,50.36
2022-08-20T00:09:12.380Z,50.29
2022-08-20T00:10:15.069Z,50.29
2022-08-20T00:11:22.091Z,50.67
2022-08-20T00:12:25.088Z,50.47
2022-08-20T00:13:34.923Z,50.75
2022-08-20T00:14:37.609Z,51.05
2022-08-20T00:15:41.314Z,50.89
2022-08-20T00:16:43.496Z,50.86
2022-08-20T00:17:45.531Z,51.34
2022-08-20T00:18:47.961Z,51.47
2022-08-20T00:19:50.081Z,51.43
2022-08-20T00:20:55.486Z,51.52
2022-08-20T00:21:59.787Z,51.19
2022-08-20T00:23:02.149Z,51.45
2022-08-20T00:24:04.897Z,51.51
2022-08-20T00:25:08.539Z,51.96
2022-08-20T00:26:11.408Z,51.71
2022-08-20T00:27:13.467Z,52.15
2022-08-20T00:28:17.367Z,52.00
2022-08-20T00:29:20.307Z,52.14
2022-08-20T00:30:23.232Z,52.41
2022-08-20T00:31:25.824Z,52.23
2022-08-20T00:32:27.945Z,52.75
2022-08-20T00:33:30.381Z,52.37
2022-08-20T00:34:32.670Z,52.46
2022-08-20T00:35:37.593Z,52.87
2022-08-20T00:36:39.738Z,52.58
2022-08-20T00:37:42.552Z,52.77
2022-08-20T00:38:47.103Z,53.03
2022-08-20T00:39:49.298Z,52.93
2022-08-20T00:40:59.539Z,53.43
2022-08-20T00:42:04.806Z,53.20
2022-08-20T00:43:23.886Z,53.64
2022-08-20T00:44:25.959Z,53.63
2022-08-20T00:45:30.830Z,53.64
2022-08-20T00:46:34.553Z,53.76
2022-08-20T00:47:37.908Z,53.68
2022-08-20T00:48:42.624Z,53.55
2022-08-20T00:49:45.774Z,53.92
2022-08-20T00:50:48.472Z,54.06
2022-08-20T00:51:59.338Z,54.29
2022-08-20T00:53:05.903Z,54.15
2022-08-20T00:54:21.814Z,54.18
2022-08-20T00:55:30.978Z,54.38
2022-08-20T00:56:35.401Z,54.59
2022-08-20T00:57:59.592Z,54.52
2022-08-20T00:59:11.614Z,54.70
2022-08-20T01:00:20.700Z,54.79
2022-08-20T01:01:26.123Z,55.14
2022-08-20T01:02:31.934Z,55.46
2022-08-20T01:03:37.066Z,55.03
2022-08-20T01:04:39.812Z,55.32
2022-08-20T01:05:45.428Z,55.46
2022-08-20T01:06:48.784Z,55.43
2022-08-20T01:07:53.990Z,55.54
2022-08-20T01:08:56.820Z,55.80
2022-08-20T01:10:00.797Z,55.24
2022-08-20T01:11:22.252Z,55.70
2022-08-20T01:12:25.926Z,55.72
2022-08-20T01:13:28.057Z,55.72
2022-08-20T01:14:36.083Z,55.99
2022-08-20T01:15:43.428Z,55.97
2022-08-20T01:16:49.408Z,56.06
2022-08-20T01:17:55.137Z,56.22
2022-08-20T01:19:01.294Z,55.76
2022-08-20T01:20:10.749Z,56.08
2022-08-20T01:21:13.008Z,56.20
2022-08-20T01:22:44.146Z,56.36
2022-08-20T01:23:57.003Z,56.27
2022-08-20T01:25:15.741Z,56.39
2022-08-20T01:26:25.105Z,56.51
2022-08-20T01:27:28.365Z,56.57
2022-08-20T01:28:50.853Z,57.01
2022-08-20T01:29:53.554Z,57.04
2022-08-20T01:30:56.627Z,56.94
2022-08-20T01:32:01.586Z,56.62
2022-08-20T01:33:05.116Z,56.91
2022-08-20T01:34:11.235Z,56.70
2022-08-20T01:35:18.469Z,56.91
2022-08-20T01:36:30.517Z,57.00
2022-08-20T01:37:32.660Z,57.11
2022-08-20T01:38:35.655Z,57.05
2022-08-20T01:39:38.290Z,56.54
2022-08-20T01:40:55.517Z,56.60
2022-08-20T01:42:21.434Z,56.16
2022-08-20T01:43:24.445Z,56.16
2022-08-20T01:44:27.499Z,56.13
2022-08-20T01:45:32.020Z,56.21
2022-08-20T01:46:42.319Z,56.12
2022-08-20T01:47:47.404Z,56.46
2022-08-20T01:48:53.786Z,56.65
2022-08-20T01:50:00.186Z,56.54
2022-08-20T01:51:10.945Z,56.34
2022-08-20T01:52:23.042Z,56.39
2022-08-20T01:53:30.427Z,56.69
2022-08-20T01:54:34.209Z,56.64
2022-08-20T01:55:38.419Z,56.65
2022-08-20T01:57:02.479Z,56.82
2022-08-20T01:58:05.081Z,56.94
2022-08-20T01:59:07.386Z,57.18
2022-08-20T02:00:20.238Z,56.95
2022-08-20T02:01:35.412Z,57.21
2022-08-20T02:02:49.725Z,57.08
2022-08-20T02:03:54.243Z,57.69
2022-08-20T02:04:58.891Z,57.08
2022-08-20T02:06:02.136Z,57.47
2022-08-20T02:07:07.085Z,57.45
2022-08-20T02:08:10.360Z,57.25
2022-08-20T02:09:16.175Z,57.04
2022-08-20T02:10:19.452Z,57.10
2022-08-20T02:11:23.656Z,57.62
2022-08-20T02:12:27.539Z,57.48
2022-08-20T02:13:30.731Z,57.30
2022-08-20T02:14:33.835Z,57.48
2022-08-20T02:15:42.908Z,57.03
2022-08-20T02:16:54.684Z,57.30
2022-08-20T02:17:58.033Z,57.42
2022-08-20T02:19:12.762Z,57.38
2022-08-20T02:20:24.037Z,57.64
2022-08-20T02:21:28.899Z,57.62
2022-08-20T02:22:50.588Z,57.94
2022-08-20T02:23:54.693Z,57.83
2022-08-20T02:24:57.115Z,58.03
2022-08-20T02:25:59.806Z,58.18
2022-08-20T02:27:02.188Z,57.81
2022-08-20T02:28:09.961Z,57.87
2022-08-20T02:29:13.659Z,57.76
2022-08-20T02:30:27.774Z,57.70
2022-08-20T02:31:34.844Z,57.63
2022-08-20T02:32:43.683Z,57.73
2022-08-20T02:34:18.459Z,57.58
2022-08-20T02:35:13.703Z,57.65
2022-08-20T02:36:18.907Z,57.62
2022-08-20T02:37:21.095Z,57.54
2022-08-20T02:38:23.852Z,57.51
2022-08-20T02:39:26.967Z,56.72
2022-08-20T02:40:31.558Z,56.07
2022-08-20T02:41:35.353Z,55.35
2022-08-20T02:42:39.375Z,54.79
2022-08-20T02:43:41.938Z,54.59
2022-08-20T02:44:44.150Z,53.67
2022-08-20T02:45:46.742Z,53.43
2022-08-20T02:46:50.386Z,53.02
2022-08-20T02:47:57.243Z,52.42
2022-08-20T02:49:00.560Z,51.79
2022-08-20T02:50:03.783Z,51.62
2022-08-20T02:51:10.194Z,51.36
2022-08-20T02:52:12.280Z,51.09
2022-08-20T02:53:14.537Z,50.72
2022-08-20T02:54:19.371Z,50.27
2022-08-20T02:55:27.447Z,50.07
2022-08-20T02:56:30.513Z,49.77
2022-08-20T02:57:33.384Z,49.61
2022-08-20T02:58:38.667Z,49.13
2022-08-20T02:59:40.932Z,48.89
2022-08-20T03:00:43.348Z,48.39
2022-08-20T03:01:46.354Z,48.21
2022-08-20T03:02:49.074Z,48.72
2022-08-20T03:03:51.245Z,50.08
2022-08-20T03:04:53.344Z,50.46
2022-08-20T03:05:58.380Z,51.42
2022-08-20T03:07:00.577Z,51.21
2022-08-20T03:08:04.952Z,52.03
2022-08-20T03:09:09.192Z,52.46
2022-08-20T03:10:12.859Z,52.75
2022-08-20T03:11:14.995Z,53.33
2022-08-20T03:12:17.195Z,53.40
2022-08-20T03:13:20.788Z,54.29
2022-08-20T03:14:23.320Z,55.07
2022-08-20T03:15:25.749Z,55.37
2022-08-20T03:16:28.006Z,55.34
2022-08-20T03:17:30.689Z,55.16
2022-08-20T03:18:38.359Z,55.55
2022-08-20T03:19:40.543Z,55.74
2022-08-20T03:20:43.167Z,55.11
2022-08-20T03:21:48.391Z,56.02
2022-08-20T03:22:50.579Z,56.34
2022-08-20T03:23:52.809Z,56.26
2022-08-20T03:24:55.720Z,56.40
2022-08-20T03:26:13.354Z,56.45
2022-08-20T03:27:17.039Z,56.14
2022-08-20T03:28:24.274Z,56.49
2022-08-20T03:29:26.424Z,56.63
2022-08-20T03:30:29.554Z,56.99
2022-08-20T03:31:31.859Z,57.30
2022-08-20T03:32:37.062Z,56.59
2022-08-20T03:33:39.792Z,56.44
2022-08-20T03:34:55.481Z,57.29
2022-08-20T03:35:58.555Z,57.53
2022-08-20T03:37:00.701Z,57.36
2022-08-20T03:38:10.413Z,57.40
2022-08-20T03:39:13.726Z,57.48
2022-08-20T03:40:29.978Z,57.76
2022-08-20T03:41:33.546Z,57.39
2022-08-20T03:42:37.885Z,57.68
2022-08-20T03:43:42.327Z,57.53
2022-08-20T03:44:44.551Z,57.50
2022-08-20T03:45:47.737Z,56.90
2022-08-20T03:46:49.992Z,57.21
2022-08-20T03:47:54.057Z,57.23
2022-08-20T03:48:59.961Z,57.37
2022-08-20T03:50:05.071Z,57.06
2022-08-20T03:51:07.968Z,56.79
2022-08-20T03:52:10.098Z,56.43
2022-08-20T03:53:14.730Z,56.13
2022-08-20T03:54:17.341Z,56.22
2022-08-20T03:55:20.046Z,56.63
2022-08-20T03:56:22.064Z,56.33
2022-08-20T03:57:24.943Z,56.29
2022-08-20T03:58:34.589Z,55.84
2022-08-20T03:59:38.551Z,56.00
2022-08-20T04:00:45.552Z,56.02
2022-08-20T04:01:47.808Z,55.23
2022-08-20T04:02:50.248Z,53.07
2022-08-20T04:03:55.218Z,50.28
2022-08-20T04:06:02.212Z,44.19
2022-08-20T04:07:26.210Z,42.63
2022-08-20T04:08:31.598Z,40.71
2022-08-20T04:09:34.834Z,40.11
2022-08-20T04:10:37.701Z,39.52
2022-08-20T04:12:05.734Z,38.23
2022-08-20T04:13:09.213Z,39.18
2022-08-20T04:14:15.913Z,38.14
2022-08-20T04:15:24.865Z,39.30
2022-08-20T04:16:27.703Z,40.53
2022-08-20T04:17:29.752Z,41.39
2022-08-20T04:18:32.292Z,42.36
2022-08-20T04:19:35.650Z,42.79
2022-08-20T04:20:40.321Z,43.77
2022-08-20T04:21:42.432Z,44.62
2022-08-20T04:22:56.340Z,45.29
2022-08-20T04:24:04.533Z,46.71
2022-08-20T04:25:11.137Z,46.61
2022-08-20T04:26:18.314Z,46.62
2022-08-20T04:27:21.630Z,46.42
2022-08-20T04:28:28.801Z,46.33
2022-08-20T04:29:35.291Z,46.00
2022-08-20T04:30:38.113Z,45.76
2022-08-20T04:31:45.505Z,46.08
2022-08-20T04:32:48.979Z,45.84
2022-08-20T04:33:51.942Z,45.99
2022-08-20T04:34:54.264Z,46.74
2022-08-20T04:36:01.114Z,46.64
2022-08-20T04:37:03.804Z,46.39
2022-08-20T04:38:10.102Z,46.91
2022-08-20T04:39:12.247Z,47.00
2022-08-20T04:40:37.074Z,47.32
2022-08-20T04:41:39.230Z,46.10
2022-08-20T04:42:41.578Z,45.59
2022-08-20T04:43:45.909Z,45.14
2022-08-20T04:44:47.958Z,45.01
2022-08-20T04:45:53.572Z,46.01
2022-08-20T04:46:56.288Z,44.53
2022-08-20T04:47:58.440Z,41.11
2022-08-20T04:49:04.371Z,39.60
2022-08-20T04:50:13.938Z,37.96
2022-08-20T04:51:18.036Z,36.08
2022-08-20T04:52:20.460Z,34.57
2022-08-20T04:53:26.002Z,33.10
2022-08-20T04:54:28.190Z,33.28
2022-08-20T04:55:34.152Z,33.33
2022-08-20T04:56:39.882Z,34.60
2022-08-20T04:57:43.723Z,34.96
2022-08-20T04:58:51.378Z,35.62
2022-08-20T04:59:59.590Z,37.52
2022-08-20T05:01:08.770Z,38.00
2022-08-20T05:02:10.875Z,39.18
2022-08-20T05:03:18.291Z,39.36
2022-08-20T05:04:20.558Z,39.36
2022-08-20T05:05:22.889Z,39.81
2022-08-20T05:06:28.787Z,40.22
2022-08-20T05:07:31.013Z,40.47
2022-08-20T05:08:33.697Z,40.60
2022-08-20T05:09:43.859Z,40.65
2022-08-20T05:10:47.180Z,41.27
2022-08-20T05:11:49.348Z,41.22
2022-08-20T05:12:56.899Z,41.83
2022-08-20T05:13:59.689Z,42.27
2022-08-20T05:15:01.833Z,42.23
2022-08-20T05:16:05.927Z,43.15
2022-08-20T05:17:08.684Z,43.46
2022-08-20T05:18:10.992Z,43.86
2022-08-20T05:19:14.059Z,43.77
2022-08-20T05:20:18.108Z,44.20
2022-08-20T05:21:21.568Z,43.87
2022-08-20T05:22:25.074Z,43.96
2022-08-20T05:23:37.126Z,43.82
2022-08-20T05:24:39.947Z,43.95
2022-08-20T05:25:44.144Z,44.62
2022-08-20T05:26:46.853Z,44.58
2022-08-20T05:27:48.987Z,44.19
2022-08-20T05:28:57.942Z,44.50
2022-08-20T05:30:07.423Z,44.62
2022-08-20T05:31:12.483Z,43.53
2022-08-20T05:32:16.744Z,44.11
2022-08-20T05:33:22.094Z,44.01
2022-08-20T05:34:25.304Z,44.00
2022-08-20T05:35:27.706Z,44.29
2022-08-20T05:36:30.036Z,44.36
2022-08-20T05:37:32.887Z,44.41
2022-08-20T05:38:36.662Z,43.67
2022-08-20T05:39:38.826Z,43.62
2022-08-20T05:40:42.672Z,43.93
2022-08-20T05:41:44.810Z,43.65
2022-08-20T05:42:47.164Z,43.65
2022-08-20T05:43:49.236Z,44.02
2022-08-20T05:44:53.689Z,43.89
2022-08-20T05:45:58.574Z,44.04
2022-08-20T05:47:04.173Z,43.82
2022-08-20T05:48:08.568Z,43.43
2022-08-20T05:49:13.742Z,43.78
2022-08-20T05:50:23.140Z,43.69
2022-08-20T05:51:25.585Z,43.70
2022-08-20T05:52:29.622Z,43.64
2022-08-20T05:53:32.951Z,44.00
2022-08-20T05:54:35.740Z,43.92
2022-08-20T05:55:40.184Z,44.05
2022-08-20T05:56:42.325Z,44.43
2022-08-20T05:57:45.885Z,44.07
2022-08-20T05:58:48.415Z,44.16
2022-08-20T05:59:54.566Z,43.63
2022-08-20T06:00:56.919Z,44.18
2022-08-20T06:01:59.105Z,43.59
2022-08-20T06:03:19.497Z,43.74
2022-08-20T06:04:32.261Z,43.79
2022-08-20T06:05:34.938Z,44.03
2022-08-20T06:06:45.344Z,43.95
2022-08-20T06:07:50.885Z,43.73
2022-08-20T06:08:57.130Z,43.55
2022-08-20T06:10:03.361Z,43.68
2022-08-20T06:11:06.191Z,43.38
2022-08-20T06:12:11.944Z,42.73
2022-08-20T06:13:17.989Z,42.67
2022-08-20T06:14:20.647Z,42.70
2022-08-20T06:15:22.707Z,43.01
2022-08-20T06:16:28.998Z,43.09
2022-08-20T06:17:39.397Z,42.95
2022-08-20T06:18:42.155Z,43.58
2022-08-20T06:19:47.178Z,42.78
2022-08-20T06:20:50.671Z,42.75
2022-08-20T06:21:52.893Z,42.32
2022-08-20T06:22:56.347Z,42.85
2022-08-20T06:24:01.089Z,42.66
2022-08-20T06:25:06.898Z,42.72
2022-08-20T06:26:09.494Z,43.68
2022-08-20T06:27:15.696Z,42.82
2022-08-20T06:28:18.909Z,43.09
2022-08-20T06:29:21.339Z,42.81
2022-08-20T06:30:23.866Z,42.81
2022-08-20T06:31:27.686Z,42.76
2022-08-20T06:32:32.552Z,42.91
2022-08-20T06:33:35.299Z,42.54
2022-08-20T06:34:37.584Z,42.43
2022-08-20T06:35:52.334Z,42.35
2022-08-20T06:36:55.597Z,42.22
2022-08-20T06:38:00.524Z,42.34
2022-08-20T06:39:02.976Z,42.39
2022-08-20T06:40:19.851Z,42.58
2022-08-20T06:41:22.090Z,41.61
2022-08-20T06:42:24.625Z,42.07
2022-08-20T06:43:26.778Z,41.88
2022-08-20T06:44:29.205Z,42.36
2022-08-20T06:45:34.415Z,42.07
2022-08-20T06:46:38.374Z,41.99
2022-08-20T06:47:42.247Z,42.32
2022-08-20T06:48:44.439Z,42.71
2022-08-20T06:49:53.736Z,41.73
2022-08-20T06:50:56.109Z,41.60
2022-08-20T06:51:58.157Z,41.65
2022-08-20T06:53:01.476Z,41.54
2022-08-20T06:54:05.357Z,41.64
2022-08-20T06:55:10.367Z,41.24
2022-08-20T06:56:13.409Z,41.15
2022-08-20T06:57:16.273Z,41.16
2022-08-20T06:58:37.557Z,40.90
2022-08-20T06:59:42.024Z,40.82
2022-08-20T07:00:45.374Z,40.73
2022-08-20T07:01:49.628Z,40.69
2022-08-20T07:02:51.812Z,40.49
2022-08-20T07:03:56.299Z,40.76
2022-08-20T07:04:58.367Z,40.78
2022-08-20T07:06:00.811Z,39.96
2022-08-20T07:07:03.391Z,40.14
2022-08-20T07:08:05.938Z,40.13
2022-08-20T07:09:08.457Z,39.49
2022-08-20T07:10:14.259Z,39.13
2022-08-20T07:11:16.581Z,38.95
2022-08-20T07:12:18.775Z,38.75
2022-08-20T07:13:20.925Z,39.08
2022-08-20T07:14:24.768Z,38.76
2022-08-20T07:15:27.526Z,38.77
2022-08-20T07:16:29.959Z,39.12
2022-08-20T07:17:32.436Z,39.21
2022-08-20T07:18:34.788Z,39.27
2022-08-20T07:19:37.269Z,39.51
2022-08-20T07:20:43.130Z,38.93
2022-08-20T07:21:45.298Z,38.76
2022-08-20T07:22:56.660Z,38.55
2022-08-20T07:23:58.891Z,39.17
2022-08-20T07:25:01.666Z,38.64
2022-08-20T07:26:04.151Z,38.58
2022-08-20T07:27:06.437Z,38.48
2022-08-20T07:28:14.801Z,38.33
2022-08-20T07:29:16.985Z,38.30
2022-08-20T07:30:56.500Z,38.88
2022-08-20T07:32:18.512Z,38.67
2022-08-20T07:33:25.933Z,38.86
2022-08-20T07:34:31.755Z,38.84
2022-08-20T07:35:34.034Z,38.44
2022-08-20T07:36:36.314Z,38.30
2022-08-20T07:37:43.115Z,38.04
2022-08-20T07:38:47.749Z,37.97
2022-08-20T07:39:50.527Z,37.83
2022-08-20T07:40:57.315Z,37.87
2022-08-20T07:42:07.411Z,37.85
2022-08-20T07:43:10.902Z,37.97
2022-08-20T07:44:13.657Z,38.34
2022-08-20T07:45:18.985Z,38.10
2022-08-20T07:46:21.809Z,38.63
2022-08-20T07:47:23.947Z,38.38
2022-08-20T07:48:32.119Z,38.22
2022-08-20T07:49:41.923Z,38.18
2022-08-20T07:50:44.432Z,38.04
2022-08-20T07:51:46.488Z,37.99
2022-08-20T07:52:48.746Z,38.05
2022-08-20T07:53:52.032Z,38.00
2022-08-20T07:54:54.411Z,37.89
2022-08-20T07:55:59.434Z,37.81
2022-08-20T07:57:05.473Z,38.02
2022-08-20T07:58:11.507Z,37.99
2022-08-20T07:59:14.079Z,38.09
2022-08-20T08:00:21.243Z,37.96
2022-08-20T08:01:30.851Z,37.83
2022-08-20T08:02:33.170Z,37.44
2022-08-20T08:03:48.955Z,37.13
2022-08-20T08:04:51.713Z,37.29
2022-08-20T08:05:54.191Z,37.05
2022-08-20T08:07:00.277Z,37.31
2022-08-20T08:08:07.138Z,37.30
2022-08-20T08:09:14.474Z,37.28
2022-08-20T08:10:22.583Z,37.29
2022-08-20T08:11:24.666Z,37.06
2022-08-20T08:12:33.417Z,37.00
2022-08-20T08:13:38.229Z,36.79
2022-08-20T08:14:43.865Z,36.57
2022-08-20T08:15:50.038Z,36.47
2022-08-20T08:16:55.365Z,36.68
2022-08-20T08:18:02.215Z,36.72
2022-08-20T08:19:08.275Z,36.62
2022-08-20T08:20:12.597Z,36.84
2022-08-20T08:21:14.951Z,36.73
2022-08-20T08:22:20.168Z,36.56
2022-08-20T08:23:32.099Z,36.85
2022-08-20T08:24:36.103Z,36.83
2022-08-20T08:25:46.271Z,36.72
2022-08-20T08:26:50.271Z,36.65
2022-08-20T08:27:55.667Z,36.53
2022-08-20T08:28:58.659Z,36.51
2022-08-20T08:30:01.799Z,36.70
2022-08-20T08:31:05.836Z,36.57
2022-08-20T08:32:07.949Z,36.87
2022-08-20T08:33:31.016Z,37.25
2022-08-20T08:34:36.160Z,37.06
2022-08-20T08:35:42.849Z,36.92
2022-08-20T08:36:45.659Z,37.15
2022-08-20T08:37:50.004Z,37.34
2022-08-20T08:38:52.138Z,37.16
2022-08-20T08:39:54.277Z,37.25
2022-08-20T08:41:02.331Z,37.31
2022-08-20T08:42:32.141Z,37.65
2022-08-20T08:43:37.542Z,37.78
2022-08-20T08:44:42.034Z,37.68
2022-08-20T08:45:48.388Z,37.65
2022-08-20T08:47:03.029Z,37.65
2022-08-20T08:48:05.513Z,37.47
2022-08-20T08:49:14.738Z,37.11
2022-08-20T08:50:50.133Z,37.32
2022-08-20T08:52:07.327Z,37.51
2022-08-20T08:53:27.205Z,37.27
2022-08-20T08:54:31.556Z,37.54
2022-08-20T08:55:34.329Z,37.63
2022-08-20T08:56:36.764Z,37.53
2022-08-20T08:57:38.849Z,37.55
2022-08-20T08:58:41.910Z,37.61
2022-08-20T09:00:03.636Z,37.68
2022-08-20T09:01:55.233Z,38.05
2022-08-20T09:03:03.249Z,37.98
2022-08-20T09:04:10.285Z,37.96
2022-08-20T09:05:16.299Z,37.98
2022-08-20T09:06:23.441Z,37.96
2022-08-20T09:07:28.589Z,38.27
2022-08-20T09:08:37.178Z,38.53
2022-08-20T09:09:43.193Z,38.26
2022-08-20T09:10:47.344Z,38.35
2022-08-20T09:11:55.564Z,39.17
2022-08-20T09:13:04.053Z,39.21
2022-08-20T09:14:06.855Z,39.08
2022-08-20T09:15:09.511Z,39.22
2022-08-20T09:16:13.188Z,39.26
2022-08-20T09:17:17.401Z,38.99
2022-08-20T09:18:19.554Z,39.22
2022-08-20T09:19:22.009Z,39.36
2022-08-20T09:20:26.915Z,39.91
2022-08-20T09:21:29.492Z,39.75
2022-08-20T09:22:33.549Z,39.96
2022-08-20T09:23:36.055Z,39.96
2022-08-20T09:24:38.621Z,39.91
2022-08-20T09:25:40.788Z,40.21
2022-08-20T09:26:42.921Z,40.23
2022-08-20T09:27:45.811Z,40.18
2022-08-20T09:28:52.067Z,40.55
2022-08-20T09:29:54.844Z,40.66
2022-08-20T09:30:57.921Z,41.09
2022-08-20T09:32:12.468Z,41.38
2022-08-20T09:33:15.846Z,41.48
2022-08-20T09:34:18.008Z,42.03
2022-08-20T09:35:20.048Z,42.42
2022-08-20T09:36:29.043Z,42.52
2022-08-20T09:37:37.496Z,42.56
2022-08-20T09:38:40.046Z,43.66
2022-08-20T09:39:43.263Z,43.52
2022-08-20T09:40:45.542Z,43.61
2022-08-20T09:41:47.569Z,43.89
2022-08-20T09:42:51.158Z,43.99
2022-08-20T09:43:53.494Z,44.63
2022-08-20T09:44:56.364Z,43.58
2022-08-20T09:46:00.906Z,43.89
2022-08-20T09:47:03.954Z,44.89
2022-08-20T09:48:10.712Z,44.66
2022-08-20T09:49:14.040Z,44.94
2022-08-20T09:50:16.376Z,44.90
2022-08-20T09:51:18.646Z,44.19
2022-08-20T09:52:24.985Z,45.17
2022-08-20T09:53:27.354Z,44.95
2022-08-20T09:54:30.745Z,45.20
2022-08-20T09:55:34.737Z,45.58
2022-08-20T09:56:38.192Z,45.89
2022-08-20T09:57:40.337Z,46.01
2022-08-20T09:58:54.091Z,46.60
2022-08-20T10:00:12.820Z,47.69
2022-08-20T10:01:17.177Z,47.82
2022-08-20T10:02:19.422Z,47.45
2022-08-20T10:03:21.533Z,48.05
2022-08-20T10:04:24.255Z,46.96
2022-08-20T10:05:26.725Z,47.55
2022-08-20T10:06:29.327Z,48.20
2022-08-20T10:07:31.457Z,47.91
2022-08-20T10:08:34.321Z,47.62
2022-08-20T10:09:37.303Z,47.02
2022-08-20T10:10:42.037Z,46.86
2022-08-20T10:11:44.470Z,46.47
2022-08-20T10:12:48.128Z,47.61
2022-08-20T10:13:52.176Z,47.17
2022-08-20T10:14:55.967Z,46.70
2022-08-20T10:15:58.581Z,47.56
2022-08-20T10:17:02.447Z,47.28
2022-08-20T10:18:07.904Z,47.44
2022-08-20T10:19:10.133Z,47.35
2022-08-20T10:20:14.798Z,47.88
2022-08-20T10:21:19.826Z,48.72
2022-08-20T10:22:22.019Z,47.65
2022-08-20T10:23:24.292Z,47.45
2022-08-20T10:24:27.457Z,47.67
2022-08-20T10:25:30.010Z,47.79
2022-08-20T10:26:32.178Z,48.98
2022-08-20T10:27:34.850Z,49.18
2022-08-20T10:28:39.820Z,48.61
2022-08-20T10:29:46.311Z,47.86
2022-08-20T10:30:49.142Z,48.42
2022-08-20T10:31:51.763Z,48.30
2022-08-20T10:32:54.141Z,48.18
2022-08-20T10:33:56.926Z,48.25
2022-08-20T10:34:59.266Z,48.74
2022-08-20T10:36:16.795Z,48.87
2022-08-20T10:37:22.606Z,48.86
2022-08-20T10:38:24.798Z,48.76
2022-08-20T10:39:27.102Z,47.79
2022-08-20T10:40:33.826Z,48.26
2022-08-20T10:41:38.955Z,48.90
2022-08-20T10:42:43.660Z,48.63
2022-08-20T10:43:46.257Z,48.45
2022-08-20T10:44:48.571Z,48.59
2022-08-20T10:45:51.469Z,48.90
2022-08-20T10:46:57.030Z,48.59
2022-08-20T10:48:02.714Z,49.00
2022-08-20T10:49:05.271Z,47.40
2022-08-20T10:50:10.839Z,48.00
2022-08-20T10:51:13.012Z,48.58
2022-08-20T10:52:15.130Z,48.71
2022-08-20T10:53:18.086Z,47.11
2022-08-20T10:54:20.235Z,48.72
2022-08-20T10:55:22.396Z,48.20
2022-08-20T10:56:24.554Z,48.19
2022-08-20T10:57:34.918Z,47.82
2022-08-20T10:58:39.606Z,47.79
2022-08-20T10:59:43.802Z,48.54
2022-08-20T11:00:47.517Z,47.90
2022-08-20T11:01:49.675Z,48.87
2022-08-20T11:02:52.120Z,47.63
2022-08-20T11:03:54.500Z,47.45
2022-08-20T11:04:57.185Z,46.78
2022-08-20T11:05:59.381Z,47.33
2022-08-20T11:07:53.505Z,47.05
2022-08-20T11:08:49.957Z,46.95
2022-08-20T11:09:55.306Z,47.19
2022-08-20T11:10:57.463Z,47.58
2022-08-20T11:11:59.644Z,46.18
2022-08-20T11:13:03.841Z,46.70
2022-08-20T11:14:05.976Z,47.64
2022-08-20T11:15:09.459Z,46.21
2022-08-20T11:16:12.676Z,46.37
2022-08-20T11:17:23.338Z,46.28
2022-08-20T11:18:25.439Z,46.97
2022-08-20T11:19:28.537Z,45.38
2022-08-20T11:20:32.136Z,45.85
2022-08-20T11:21:34.573Z,45.84
2022-08-20T11:22:37.091Z,45.59
2022-08-20T11:23:39.232Z,45.52
2022-08-20T11:24:41.492Z,45.47
2022-08-20T11:25:48.580Z,45.04
2022-08-20T11:26:53.504Z,44.72
2022-08-20T11:27:57.265Z,44.41
2022-08-20T11:28:59.412Z,42.89
2022-08-20T11:30:02.166Z,43.81
2022-08-20T11:31:05.181Z,44.10
2022-08-20T11:32:07.472Z,44.25
2022-08-20T11:33:12.221Z,43.44
2022-08-20T11:34:14.758Z,43.46
2022-08-20T11:36:40.667Z,44.01
2022-08-20T11:37:42.725Z,43.59
2022-08-20T11:38:45.074Z,44.18
2022-08-20T11:39:47.192Z,43.93
2022-08-20T11:40:49.360Z,43.70
2022-08-20T11:41:55.253Z,43.64
2022-08-20T11:43:14.220Z,43.57
2022-08-20T11:44:21.032Z,43.29
2022-08-20T11:45:23.844Z,43.41
2022-08-20T11:46:28.938Z,43.66
2022-08-20T11:47:31.718Z,43.52
2022-08-20T11:48:33.958Z,43.23
2022-08-20T11:49:37.693Z,43.65
2022-08-20T11:50:39.749Z,43.53
2022-08-20T11:51:49.861Z,43.45
2022-08-20T11:52:52.362Z,43.21
2022-08-20T11:53:54.711Z,42.86
2022-08-20T11:54:58.773Z,43.29
2022-08-20T11:56:01.687Z,43.06
2022-08-20T11:57:05.820Z,42.03
2022-08-20T11:58:08.021Z,42.14
2022-08-20T11:59:10.091Z,42.23
2022-08-20T12:00:20.246Z,41.68
2022-08-20T12:01:34.685Z,41.35
2022-08-20T12:02:36.915Z,41.25
2022-08-20T12:03:39.322Z,41.55
2022-08-20T12:04:42.785Z,41.07
2022-08-20T12:05:46.964Z,40.49
2022-08-20T12:06:49.162Z,40.61
2022-08-20T12:07:51.388Z,40.39
2022-08-20T12:08:53.474Z,39.92
2022-08-20T12:09:55.944Z,39.23
2022-08-20T12:11:00.397Z,39.09
2022-08-20T12:12:02.666Z,39.40
2022-08-20T12:14:07.712Z,38.87
2022-08-20T12:15:12.812Z,39.12
2022-08-20T12:16:15.617Z,38.56
2022-08-20T12:17:23.720Z,38.78
2022-08-20T12:18:27.043Z,38.60
2022-08-20T12:19:29.392Z,38.36
2022-08-20T12:20:31.561Z,37.92
2022-08-20T12:21:33.668Z,37.46
2022-08-20T12:22:35.863Z,37.40
2022-08-20T12:23:38.262Z,37.89
2022-08-20T12:24:42.077Z,37.38
2022-08-20T12:25:44.718Z,37.73
2022-08-20T12:26:48.174Z,37.81
2022-08-20T12:27:53.204Z,37.47
2022-08-20T12:28:56.678Z,37.18
2022-08-20T12:30:09.057Z,36.79
2022-08-20T12:31:15.653Z,37.17
2022-08-20T12:32:18.421Z,36.90
2022-08-20T12:33:22.766Z,36.65
2022-08-20T12:34:25.508Z,36.96
2022-08-20T12:35:28.003Z,37.10
2022-08-20T12:36:30.125Z,37.55
2022-08-20T12:37:32.856Z,37.47
2022-08-20T12:38:35.043Z,36.98
2022-08-20T12:39:42.049Z,37.56
2022-08-20T12:40:44.618Z,37.47
2022-08-20T12:41:46.922Z,37.68
2022-08-20T12:42:49.213Z,37.57
2022-08-20T12:43:51.357Z,37.00
2022-08-20T12:44:54.176Z,37.44
2022-08-20T12:45:56.390Z,37.02
2022-08-20T12:47:17.796Z,37.30
2022-08-20T12:48:21.186Z,37.49
2022-08-20T12:49:23.333Z,37.42
2022-08-20T12:50:30.934Z,37.27
2022-08-20T12:51:33.721Z,37.39
2022-08-20T12:52:36.957Z,37.28
2022-08-20T12:53:39.054Z,37.29
2022-08-20T12:54:41.577Z,37.19
2022-08-20T12:55:43.779Z,37.15
2022-08-20T12:56:46.472Z,36.97
2022-08-20T12:58:01.132Z,36.87
2022-08-20T12:59:03.135Z,36.96
2022-08-20T13:00:11.688Z,37.02
2022-08-20T13:01:15.936Z,36.60
2022-08-20T13:02:18.661Z,36.94
2022-08-20T13:03:21.236Z,36.50
2022-08-20T13:04:24.072Z,37.12
2022-08-20T13:05:27.080Z,37.27
2022-08-20T13:06:29.440Z,36.74
2022-08-20T13:07:32.555Z,37.02
2022-08-20T13:08:34.703Z,37.06
2022-08-20T13:09:36.727Z,36.84
2022-08-20T13:10:47.278Z,37.04
2022-08-20T13:11:49.486Z,37.06
2022-08-20T13:12:52.326Z,37.22
2022-08-20T13:13:54.655Z,37.09
2022-08-20T13:14:56.900Z,37.23
2022-08-20T13:15:58.959Z,37.06
2022-08-20T13:17:02.517Z,36.94
2022-08-20T13:18:06.569Z,36.95
2022-08-20T13:19:08.645Z,37.15
2022-08-20T13:20:15.109Z,37.02
2022-08-20T13:21:20.095Z,37.03
2022-08-20T13:22:26.103Z,37.10
2022-08-20T13:23:35.524Z,37.27
2022-08-20T13:24:38.454Z,37.55
2022-08-20T13:25:40.640Z,37.14
2022-08-20T13:26:42.822Z,37.44
2022-08-20T13:27:45.465Z,37.57
2022-08-20T13:28:47.956Z,37.86
2022-08-20T13:29:55.224Z,37.84
2022-08-20T13:31:02.997Z,38.32
2022-08-20T13:32:05.747Z,37.94
2022-08-20T13:33:07.849Z,38.17
2022-08-20T13:34:10.484Z,38.16
2022-08-20T13:35:13.555Z,38.31
2022-08-20T13:36:15.714Z,38.61
2022-08-20T13:37:25.949Z,38.56
2022-08-20T13:38:31.386Z,38.72
2022-08-20T13:39:33.696Z,38.67
2022-08-20T13:40:35.900Z,38.82
2022-08-20T13:41:38.042Z,39.00
2022-08-20T13:42:40.269Z,39.00
2022-08-20T13:43:43.450Z,39.19
2022-08-20T13:44:45.661Z,39.20
2022-08-20T13:45:47.739Z,39.19
2022-08-20T13:46:50.739Z,39.36
2022-08-20T13:47:55.234Z,39.14
2022-08-20T13:48:57.667Z,39.32
2022-08-20T13:50:08.695Z,39.29
2022-08-20T13:51:10.868Z,39.48
2022-08-20T13:52:13.431Z,39.77
2022-08-20T13:53:19.245Z,39.69
2022-08-20T13:54:21.667Z,39.66
2022-08-20T13:55:26.420Z,39.45
2022-08-20T13:56:29.582Z,39.57
2022-08-20T13:57:31.765Z,39.66
2022-08-20T13:58:33.903Z,39.84
2022-08-20T13:59:40.803Z,39.73
2022-08-20T14:00:43.093Z,39.84
2022-08-20T14:01:47.843Z,40.03
2022-08-20T14:02:50.076Z,40.07